sensor_id;sensor_type;location;lat;lon;timestamp;P1;durP1;ratioP1;P2;durP2;ratioP2
56267;SDS011;42175;46.930;9.532;2022-10-16T00:00:37;18.13;;;2.33;;
56267;SDS011;42175;46.930;9.532;2022-10-16T00:03:04;8.35;;;1.90;;
56267;SDS011;42175;46.930;9.532;2022-10-16T00:05:31;9.38;;;1.98;;
56267;SDS011;42175;46.930;9.532;2022-10-16T00:07:57;12.07;;;3.00;;
56267;SDS011;42175;46.930;9.532;2022-10-16T00:10:23;6.30;;;2.53;;
56267;SDS011;42175;46.930;9.532;2022-10-16T00:12:49;7.40;;;1.55;;
56267;SDS011;42175;46.930;9.532;2022-10-16T00:15:15;16.77;;;2.28;;
56267;SDS011;42175;46.930;9.532;2022-10-16T00:17:41;5.78;;;2.20;;
56267;SDS011;42175;46.930;9.532;2022-10-16T00:20:07;5.43;;;2.20;;
56267;SDS011;42175;46.930;9.532;2022-10-16T00:22:33;8.88;;;2.42;;
56267;SDS011;42175;46.930;9.532;2022-10-16T00:24:58;8.20;;;2.38;;
56267;SDS011;42175;46.930;9.532;2022-10-16T00:27:24;6.90;;;2.30;;
56267;SDS011;42175;46.930;9.532;2022-10-16T00:29:51;3.92;;;1.88;;
56267;SDS011;42175;46.930;9.532;2022-10-16T00:32:18;7.72;;;2.10;;
56267;SDS011;42175;46.930;9.532;2022-10-16T00:34:45;12.25;;;2.03;;
56267;SDS011;42175;46.930;9.532;2022-10-16T00:37:11;9.40;;;2.17;;
56267;SDS011;42175;46.930;9.532;2022-10-16T00:39:38;7.53;;;2.10;;
56267;SDS011;42175;46.930;9.532;2022-10-16T00:42:04;6.78;;;2.40;;
56267;SDS011;42175;46.930;9.532;2022-10-16T00:44:50;7.65;;;1.88;;
56267;SDS011;42175;46.930;9.532;2022-10-16T00:47:55;6.38;;;2.33;;
56267;SDS011;42175;46.930;9.532;2022-10-16T00:52:56;9.05;;;2.53;;
56267;SDS011;42175;46.930;9.532;2022-10-16T00:55:24;7.97;;;1.83;;
56267;SDS011;42175;46.930;9.532;2022-10-16T00:57:50;8.10;;;2.05;;
56267;SDS011;42175;46.930;9.532;2022-10-16T01:00:18;12.25;;;2.28;;
56267;SDS011;42175;46.930;9.532;2022-10-16T01:05:24;4.93;;;1.67;;
56267;SDS011;42175;46.930;9.532;2022-10-16T01:10:44;13.20;;;2.78;;
56267;SDS011;42175;46.930;9.532;2022-10-16T01:13:18;6.05;;;2.10;;
56267;SDS011;42175;46.930;9.532;2022-10-16T01:21:36;4.07;;;1.70;;
56267;SDS011;42175;46.930;9.532;2022-10-16T01:24:17;3.95;;;1.90;;
56267;SDS011;42175;46.930;9.532;2022-10-16T01:29:37;4.07;;;1.75;;
56267;SDS011;42175;46.930;9.532;2022-10-16T01:32:07;5.35;;;1.92;;
56267;SDS011;42175;46.930;9.532;2022-10-16T01:34:51;13.38;;;2.33;;
56267;SDS011;42175;46.930;9.532;2022-10-16T01:37:29;8.50;;;2.25;;
56267;SDS011;42175;46.930;9.532;2022-10-16T01:40:11;5.57;;;2.00;;
56267;SDS011;42175;46.930;9.532;2022-10-16T01:42:40;5.68;;;1.70;;
56267;SDS011;42175;46.930;9.532;2022-10-16T01:45:11;6.47;;;1.90;;
56267;SDS011;42175;46.930;9.532;2022-10-16T01:47:39;3.65;;;1.85;;
56267;SDS011;42175;46.930;9.532;2022-10-16T01:50:06;8.43;;;2.42;;
56267;SDS011;42175;46.930;9.532;2022-10-16T01:52:37;8.85;;;2.17;;
56267;SDS011;42175;46.930;9.532;2022-10-16T01:55:07;6.93;;;2.35;;
56267;SDS011;42175;46.930;9.532;2022-10-16T01:57:36;8.38;;;2.47;;
56267;SDS011;42175;46.930;9.532;2022-10-16T02:00:10;8.82;;;2.10;;
56267;SDS011;42175;46.930;9.532;2022-10-16T02:02:41;7.00;;;2.58;;
56267;SDS011;42175;46.930;9.532;2022-10-16T02:07:53;7.25;;;2.00;;
56267;SDS011;42175;46.930;9.532;2022-10-16T02:10:19;4.95;;;2.38;;
56267;SDS011;42175;46.930;9.532;2022-10-16T02:12:48;7.80;;;2.47;;
56267;SDS011;42175;46.930;9.532;2022-10-16T02:15:18;3.45;;;2.03;;
56267;SDS011;42175;46.930;9.532;2022-10-16T02:17:44;4.22;;;2.30;;
56267;SDS011;42175;46.930;9.532;2022-10-16T02:20:10;4.63;;;1.90;;
56267;SDS011;42175;46.930;9.532;2022-10-16T02:22:40;11.80;;;2.63;;
56267;SDS011;42175;46.930;9.532;2022-10-16T02:28:22;4.60;;;1.90;;
56267;SDS011;42175;46.930;9.532;2022-10-16T02:30:49;6.30;;;1.95;;
56267;SDS011;42175;46.930;9.532;2022-10-16T02:33:20;11.48;;;2.53;;
56267;SDS011;42175;46.930;9.532;2022-10-16T02:35:48;7.40;;;2.55;;
56267;SDS011;42175;46.930;9.532;2022-10-16T02:38:16;8.15;;;2.25;;
56267;SDS011;42175;46.930;9.532;2022-10-16T02:40:43;8.88;;;2.00;;
56267;SDS011;42175;46.930;9.532;2022-10-16T02:43:10;7.55;;;2.65;;
56267;SDS011;42175;46.930;9.532;2022-10-16T02:45:36;6.47;;;2.10;;
56267;SDS011;42175;46.930;9.532;2022-10-16T02:48:02;6.93;;;2.38;;
56267;SDS011;42175;46.930;9.532;2022-10-16T02:50:28;4.68;;;2.10;;
56267;SDS011;42175;46.930;9.532;2022-10-16T02:52:53;4.13;;;1.95;;
56267;SDS011;42175;46.930;9.532;2022-10-16T02:55:19;8.38;;;2.60;;
56267;SDS011;42175;46.930;9.532;2022-10-16T02:57:45;10.95;;;2.92;;
56267;SDS011;42175;46.930;9.532;2022-10-16T03:00:12;6.68;;;2.63;;
56267;SDS011;42175;46.930;9.532;2022-10-16T03:02:40;3.60;;;1.70;;
56267;SDS011;42175;46.930;9.532;2022-10-16T03:05:06;5.20;;;2.08;;
56267;SDS011;42175;46.930;9.532;2022-10-16T03:07:32;12.88;;;2.40;;
56267;SDS011;42175;46.930;9.532;2022-10-16T03:09:58;7.82;;;2.33;;
56267;SDS011;42175;46.930;9.532;2022-10-16T03:12:25;7.95;;;2.35;;
56267;SDS011;42175;46.930;9.532;2022-10-16T03:14:52;5.55;;;2.20;;
56267;SDS011;42175;46.930;9.532;2022-10-16T03:17:18;5.57;;;2.30;;
56267;SDS011;42175;46.930;9.532;2022-10-16T03:19:43;10.05;;;2.47;;
56267;SDS011;42175;46.930;9.532;2022-10-16T03:22:09;5.75;;;2.10;;
56267;SDS011;42175;46.930;9.532;2022-10-16T03:24:35;5.50;;;2.22;;
56267;SDS011;42175;46.930;9.532;2022-10-16T03:27:01;9.45;;;2.35;;
56267;SDS011;42175;46.930;9.532;2022-10-16T03:29:27;15.75;;;2.30;;
56267;SDS011;42175;46.930;9.532;2022-10-16T03:31:54;3.83;;;2.05;;
56267;SDS011;42175;46.930;9.532;2022-10-16T03:34:21;3.42;;;1.90;;
56267;SDS011;42175;46.930;9.532;2022-10-16T03:36:46;10.55;;;3.08;;
56267;SDS011;42175;46.930;9.532;2022-10-16T03:39:12;9.32;;;1.85;;
56267;SDS011;42175;46.930;9.532;2022-10-16T03:41:38;5.78;;;2.13;;
56267;SDS011;42175;46.930;9.532;2022-10-16T03:44:04;5.97;;;2.05;;
56267;SDS011;42175;46.930;9.532;2022-10-16T03:46:30;4.78;;;2.45;;
56267;SDS011;42175;46.930;9.532;2022-10-16T03:48:56;6.25;;;2.20;;
56267;SDS011;42175;46.930;9.532;2022-10-16T03:51:22;6.60;;;2.08;;
56267;SDS011;42175;46.930;9.532;2022-10-16T03:53:48;8.20;;;2.92;;
56267;SDS011;42175;46.930;9.532;2022-10-16T03:56:13;9.02;;;2.45;;
56267;SDS011;42175;46.930;9.532;2022-10-16T03:58:39;6.03;;;2.45;;
56267;SDS011;42175;46.930;9.532;2022-10-16T04:01:05;5.25;;;2.30;;
56267;SDS011;42175;46.930;9.532;2022-10-16T04:03:31;5.57;;;2.00;;
56267;SDS011;42175;46.930;9.532;2022-10-16T04:05:57;5.70;;;2.38;;
56267;SDS011;42175;46.930;9.532;2022-10-16T04:08:22;6.35;;;1.95;;
56267;SDS011;42175;46.930;9.532;2022-10-16T04:10:48;5.60;;;1.92;;
56267;SDS011;42175;46.930;9.532;2022-10-16T04:13:14;4.30;;;1.85;;
56267;SDS011;42175;46.930;9.532;2022-10-16T04:15:41;4.35;;;2.35;;
56267;SDS011;42175;46.930;9.532;2022-10-16T04:18:07;4.43;;;2.38;;
56267;SDS011;42175;46.930;9.532;2022-10-16T04:20:33;6.30;;;2.13;;
56267;SDS011;42175;46.930;9.532;2022-10-16T04:22:59;6.57;;;1.80;;
56267;SDS011;42175;46.930;9.532;2022-10-16T04:25:25;8.25;;;2.03;;
56267;SDS011;42175;46.930;9.532;2022-10-16T04:27:52;7.03;;;2.47;;
56267;SDS011;42175;46.930;9.532;2022-10-16T04:30:18;6.63;;;2.17;;
56267;SDS011;42175;46.930;9.532;2022-10-16T04:32:47;6.43;;;1.92;;
56267;SDS011;42175;46.930;9.532;2022-10-16T04:35:15;4.63;;;1.55;;
56267;SDS011;42175;46.930;9.532;2022-10-16T04:37:41;7.80;;;2.28;;
56267;SDS011;42175;46.930;9.532;2022-10-16T04:40:07;6.18;;;2.10;;
56267;SDS011;42175;46.930;9.532;2022-10-16T04:42:33;6.88;;;2.38;;
56267;SDS011;42175;46.930;9.532;2022-10-16T04:44:58;4.60;;;2.00;;
56267;SDS011;42175;46.930;9.532;2022-10-16T04:47:24;9.73;;;2.83;;
56267;SDS011;42175;46.930;9.532;2022-10-16T04:49:50;4.85;;;1.90;;
56267;SDS011;42175;46.930;9.532;2022-10-16T04:52:15;4.35;;;1.70;;
56267;SDS011;42175;46.930;9.532;2022-10-16T04:54:42;5.78;;;2.30;;
56267;SDS011;42175;46.930;9.532;2022-10-16T04:57:10;7.18;;;1.77;;
56267;SDS011;42175;46.930;9.532;2022-10-16T04:59:36;8.00;;;1.80;;
56267;SDS011;42175;46.930;9.532;2022-10-16T05:02:02;11.70;;;2.90;;
56267;SDS011;42175;46.930;9.532;2022-10-16T05:04:28;7.88;;;2.17;;
56267;SDS011;42175;46.930;9.532;2022-10-16T05:06:53;3.13;;;1.50;;
56267;SDS011;42175;46.930;9.532;2022-10-16T05:09:19;5.10;;;1.75;;
56267;SDS011;42175;46.930;9.532;2022-10-16T05:11:45;4.57;;;2.30;;
56267;SDS011;42175;46.930;9.532;2022-10-16T05:14:11;7.85;;;2.47;;
56267;SDS011;42175;46.930;9.532;2022-10-16T05:16:37;8.23;;;2.28;;
56267;SDS011;42175;46.930;9.532;2022-10-16T05:19:02;2.80;;;1.48;;
56267;SDS011;42175;46.930;9.532;2022-10-16T05:21:28;3.60;;;1.98;;
56267;SDS011;42175;46.930;9.532;2022-10-16T05:23:54;2.65;;;1.80;;
56267;SDS011;42175;46.930;9.532;2022-10-16T05:26:20;5.43;;;2.08;;
56267;SDS011;42175;46.930;9.532;2022-10-16T05:28:46;8.18;;;1.85;;
56267;SDS011;42175;46.930;9.532;2022-10-16T05:31:14;2.70;;;1.60;;
56267;SDS011;42175;46.930;9.532;2022-10-16T05:33:39;4.28;;;1.83;;
56267;SDS011;42175;46.930;9.532;2022-10-16T05:36:06;5.20;;;1.70;;
56267;SDS011;42175;46.930;9.532;2022-10-16T05:38:34;11.27;;;1.95;;
56267;SDS011;42175;46.930;9.532;2022-10-16T05:41:01;5.03;;;1.90;;
56267;SDS011;42175;46.930;9.532;2022-10-16T05:43:28;4.93;;;2.70;;
56267;SDS011;42175;46.930;9.532;2022-10-16T05:45:58;3.83;;;1.83;;
56267;SDS011;42175;46.930;9.532;2022-10-16T05:48:26;4.22;;;1.98;;
56267;SDS011;42175;46.930;9.532;2022-10-16T05:50:59;5.60;;;2.05;;
56267;SDS011;42175;46.930;9.532;2022-10-16T05:53:28;5.43;;;1.65;;
56267;SDS011;42175;46.930;9.532;2022-10-16T05:55:55;4.20;;;1.98;;
56267;SDS011;42175;46.930;9.532;2022-10-16T05:58:22;9.00;;;2.00;;
56267;SDS011;42175;46.930;9.532;2022-10-16T06:00:55;4.65;;;2.10;;
56267;SDS011;42175;46.930;9.532;2022-10-16T06:03:22;4.10;;;1.92;;
56267;SDS011;42175;46.930;9.532;2022-10-16T06:05:48;7.55;;;2.00;;
56267;SDS011;42175;46.930;9.532;2022-10-16T06:08:14;6.93;;;1.67;;
56267;SDS011;42175;46.930;9.532;2022-10-16T06:10:41;6.32;;;1.70;;
56267;SDS011;42175;46.930;9.532;2022-10-16T06:13:07;4.18;;;2.35;;
56267;SDS011;42175;46.930;9.532;2022-10-16T06:15:32;7.75;;;2.42;;
56267;SDS011;42175;46.930;9.532;2022-10-16T06:17:58;9.93;;;2.35;;
56267;SDS011;42175;46.930;9.532;2022-10-16T06:20:24;10.85;;;2.85;;
56267;SDS011;42175;46.930;9.532;2022-10-16T06:22:49;13.80;;;3.03;;
56267;SDS011;42175;46.930;9.532;2022-10-16T06:25:15;8.02;;;2.53;;
56267;SDS011;42175;46.930;9.532;2022-10-16T06:27:41;49.92;;;32.60;;
56267;SDS011;42175;46.930;9.532;2022-10-16T06:30:07;305.67;;;239.30;;
56267;SDS011;42175;46.930;9.532;2022-10-16T06:32:33;614.53;;;527.15;;
56267;SDS011;42175;46.930;9.532;2022-10-16T06:34:59;570.33;;;476.48;;
56267;SDS011;42175;46.930;9.532;2022-10-16T06:37:24;513.28;;;423.83;;
56267;SDS011;42175;46.930;9.532;2022-10-16T06:39:51;525.60;;;430.80;;
56267;SDS011;42175;46.930;9.532;2022-10-16T06:42:17;522.95;;;419.58;;
56267;SDS011;42175;46.930;9.532;2022-10-16T06:44:44;498.50;;;391.05;;
56267;SDS011;42175;46.930;9.532;2022-10-16T06:47:10;450.83;;;353.23;;
56267;SDS011;42175;46.930;9.532;2022-10-16T06:49:35;394.63;;;301.92;;
56267;SDS011;42175;46.930;9.532;2022-10-16T06:52:01;346.48;;;269.33;;
56267;SDS011;42175;46.930;9.532;2022-10-16T06:54:27;323.33;;;240.27;;
56267;SDS011;42175;46.930;9.532;2022-10-16T06:56:53;345.73;;;252.05;;
56267;SDS011;42175;46.930;9.532;2022-10-16T06:59:20;290.50;;;217.10;;
56267;SDS011;42175;46.930;9.532;2022-10-16T07:01:46;240.85;;;169.45;;
56267;SDS011;42175;46.930;9.532;2022-10-16T07:04:11;230.52;;;167.38;;
56267;SDS011;42175;46.930;9.532;2022-10-16T07:06:37;197.40;;;139.93;;
56267;SDS011;42175;46.930;9.532;2022-10-16T07:09:05;183.65;;;129.73;;
56267;SDS011;42175;46.930;9.532;2022-10-16T07:11:34;174.77;;;118.88;;
56267;SDS011;42175;46.930;9.532;2022-10-16T07:14:01;160.48;;;112.82;;
56267;SDS011;42175;46.930;9.532;2022-10-16T07:16:28;158.52;;;108.90;;
56267;SDS011;42175;46.930;9.532;2022-10-16T07:18:59;142.38;;;97.22;;
56267;SDS011;42175;46.930;9.532;2022-10-16T07:21:31;126.63;;;81.03;;
56267;SDS011;42175;46.930;9.532;2022-10-16T07:24:02;119.07;;;76.00;;
56267;SDS011;42175;46.930;9.532;2022-10-16T07:26:35;109.03;;;72.45;;
56267;SDS011;42175;46.930;9.532;2022-10-16T07:29:04;97.45;;;63.05;;
56267;SDS011;42175;46.930;9.532;2022-10-16T07:31:31;97.68;;;64.90;;
56267;SDS011;42175;46.930;9.532;2022-10-16T07:33:58;85.47;;;55.92;;
56267;SDS011;42175;46.930;9.532;2022-10-16T07:36:25;76.68;;;49.53;;
56267;SDS011;42175;46.930;9.532;2022-10-16T07:38:51;70.28;;;46.30;;
56267;SDS011;42175;46.930;9.532;2022-10-16T07:41:18;69.82;;;43.28;;
56267;SDS011;42175;46.930;9.532;2022-10-16T07:43:48;69.63;;;42.42;;
56267;SDS011;42175;46.930;9.532;2022-10-16T07:46:16;56.70;;;36.40;;
56267;SDS011;42175;46.930;9.532;2022-10-16T07:48:43;60.17;;;33.88;;
56267;SDS011;42175;46.930;9.532;2022-10-16T07:51:12;52.03;;;30.52;;
56267;SDS011;42175;46.930;9.532;2022-10-16T07:53:40;55.38;;;31.65;;
56267;SDS011;42175;46.930;9.532;2022-10-16T07:56:06;47.80;;;28.40;;
56267;SDS011;42175;46.930;9.532;2022-10-16T07:58:32;45.80;;;25.45;;
56267;SDS011;42175;46.930;9.532;2022-10-16T08:01:02;43.55;;;24.80;;
56267;SDS011;42175;46.930;9.532;2022-10-16T08:03:30;40.78;;;22.40;;
56267;SDS011;42175;46.930;9.532;2022-10-16T08:05:59;33.15;;;19.25;;
56267;SDS011;42175;46.930;9.532;2022-10-16T08:08:26;35.35;;;19.88;;
56267;SDS011;42175;46.930;9.532;2022-10-16T08:10:52;28.90;;;17.73;;
56267;SDS011;42175;46.930;9.532;2022-10-16T08:13:18;28.67;;;17.05;;
56267;SDS011;42175;46.930;9.532;2022-10-16T08:15:44;26.92;;;16.10;;
56267;SDS011;42175;46.930;9.532;2022-10-16T08:18:11;24.85;;;14.13;;
56267;SDS011;42175;46.930;9.532;2022-10-16T08:20:38;27.83;;;15.10;;
56267;SDS011;42175;46.930;9.532;2022-10-16T08:23:06;28.92;;;13.70;;
56267;SDS011;42175;46.930;9.532;2022-10-16T08:25:34;23.20;;;12.75;;
56267;SDS011;42175;46.930;9.532;2022-10-16T08:28:05;19.35;;;11.23;;
56267;SDS011;42175;46.930;9.532;2022-10-16T08:30:32;22.20;;;12.45;;
56267;SDS011;42175;46.930;9.532;2022-10-16T08:32:58;18.33;;;11.10;;
56267;SDS011;42175;46.930;9.532;2022-10-16T08:35:24;21.90;;;12.77;;
56267;SDS011;42175;46.930;9.532;2022-10-16T08:37:50;22.88;;;12.25;;
56267;SDS011;42175;46.930;9.532;2022-10-16T08:40:18;19.25;;;11.13;;
56267;SDS011;42175;46.930;9.532;2022-10-16T08:42:49;26.38;;;12.10;;
56267;SDS011;42175;46.930;9.532;2022-10-16T08:51:02;18.33;;;10.30;;
56267;SDS011;42175;46.930;9.532;2022-10-16T08:53:43;13.82;;;9.45;;
56267;SDS011;42175;46.930;9.532;2022-10-16T08:56:21;18.38;;;9.82;;
56267;SDS011;42175;46.930;9.532;2022-10-16T08:58:47;132.60;;;28.50;;
56267;SDS011;42175;46.930;9.532;2022-10-16T09:01:15;33.20;;;6.30;;
56267;SDS011;42175;46.930;9.532;2022-10-16T09:15:38;7.60;;;2.75;;
56267;SDS011;42175;46.930;9.532;2022-10-16T09:23:32;6.90;;;2.40;;
56267;SDS011;42175;46.930;9.532;2022-10-16T09:26:00;2.88;;;2.25;;
56267;SDS011;42175;46.930;9.532;2022-10-16T09:28:27;5.30;;;2.90;;
56267;SDS011;42175;46.930;9.532;2022-10-16T09:30:53;4.38;;;2.25;;
56267;SDS011;42175;46.930;9.532;2022-10-16T09:33:21;3.72;;;2.15;;
56267;SDS011;42175;46.930;9.532;2022-10-16T09:35:51;10.02;;;3.03;;
56267;SDS011;42175;46.930;9.532;2022-10-16T09:40:55;6.95;;;2.22;;
56267;SDS011;42175;46.930;9.532;2022-10-16T09:43:26;2.50;;;1.90;;
56267;SDS011;42175;46.930;9.532;2022-10-16T09:45:59;7.43;;;2.17;;
56267;SDS011;42175;46.930;9.532;2022-10-16T09:48:30;6.25;;;2.38;;
56267;SDS011;42175;46.930;9.532;2022-10-16T09:51:06;5.55;;;2.30;;
56267;SDS011;42175;46.930;9.532;2022-10-16T09:56:27;6.53;;;2.75;;
56267;SDS011;42175;46.930;9.532;2022-10-16T09:59:02;6.15;;;2.50;;
56267;SDS011;42175;46.930;9.532;2022-10-16T10:01:37;6.47;;;2.47;;
56267;SDS011;42175;46.930;9.532;2022-10-16T10:04:05;5.38;;;2.60;;
56267;SDS011;42175;46.930;9.532;2022-10-16T10:06:35;5.10;;;3.17;;
56267;SDS011;42175;46.930;9.532;2022-10-16T10:14:16;5.85;;;2.50;;
56267;SDS011;42175;46.930;9.532;2022-10-16T10:19:36;5.43;;;2.33;;
56267;SDS011;42175;46.930;9.532;2022-10-16T10:22:44;2.90;;;1.98;;
56267;SDS011;42175;46.930;9.532;2022-10-16T10:32:46;6.25;;;2.53;;
56267;SDS011;42175;46.930;9.532;2022-10-16T10:38:50;7.75;;;4.40;;
56267;SDS011;42175;46.930;9.532;2022-10-16T10:44:16;6.57;;;2.90;;
56267;SDS011;42175;46.930;9.532;2022-10-16T10:55:26;8.73;;;2.15;;
56267;SDS011;42175;46.930;9.532;2022-10-16T11:01:18;4.25;;;2.58;;
56267;SDS011;42175;46.930;9.532;2022-10-16T11:06:44;12.43;;;3.13;;
56267;SDS011;42175;46.930;9.532;2022-10-16T11:09:25;5.35;;;2.42;;
56267;SDS011;42175;46.930;9.532;2022-10-16T11:20:19;4.25;;;2.47;;
56267;SDS011;42175;46.930;9.532;2022-10-16T11:22:48;7.43;;;2.78;;
56267;SDS011;42175;46.930;9.532;2022-10-16T11:28:08;7.30;;;2.60;;
56267;SDS011;42175;46.930;9.532;2022-10-16T11:39:03;4.95;;;2.53;;
56267;SDS011;42175;46.930;9.532;2022-10-16T11:44:40;3.97;;;2.55;;
56267;SDS011;42175;46.930;9.532;2022-10-16T11:52:55;6.30;;;2.70;;
56267;SDS011;42175;46.930;9.532;2022-10-16T11:55:36;5.00;;;2.90;;
56267;SDS011;42175;46.930;9.532;2022-10-16T11:58:05;8.65;;;2.83;;
56267;SDS011;42175;46.930;9.532;2022-10-16T12:06:53;5.78;;;3.00;;
56267;SDS011;42175;46.930;9.532;2022-10-16T12:09:40;9.43;;;2.70;;
56267;SDS011;42175;46.930;9.532;2022-10-16T12:15:18;5.15;;;2.45;;
56267;SDS011;42175;46.930;9.532;2022-10-16T12:17:44;5.18;;;3.20;;
56267;SDS011;42175;46.930;9.532;2022-10-16T12:22:50;4.15;;;2.30;;
56267;SDS011;42175;46.930;9.532;2022-10-16T12:28:16;12.13;;;2.42;;
56267;SDS011;42175;46.930;9.532;2022-10-16T12:30:56;8.60;;;2.47;;
56267;SDS011;42175;46.930;9.532;2022-10-16T12:33:25;9.98;;;2.65;;
56267;SDS011;42175;46.930;9.532;2022-10-16T12:35:52;3.95;;;2.30;;
56267;SDS011;42175;46.930;9.532;2022-10-16T12:38:35;7.32;;;2.47;;
56267;SDS011;42175;46.930;9.532;2022-10-16T12:41:24;12.05;;;3.75;;
56267;SDS011;42175;46.930;9.532;2022-10-16T12:43:50;12.18;;;2.47;;
56267;SDS011;42175;46.930;9.532;2022-10-16T12:48:42;10.13;;;2.55;;
56267;SDS011;42175;46.930;9.532;2022-10-16T12:51:21;8.60;;;2.50;;
56267;SDS011;42175;46.930;9.532;2022-10-16T12:56:41;10.18;;;2.78;;
56267;SDS011;42175;46.930;9.532;2022-10-16T13:10:19;8.73;;;2.30;;
56267;SDS011;42175;46.930;9.532;2022-10-16T13:29:15;10.35;;;2.95;;
56267;SDS011;42175;46.930;9.532;2022-10-16T13:31:42;9.43;;;3.75;;
56267;SDS011;42175;46.930;9.532;2022-10-16T13:34:12;8.70;;;3.00;;
56267;SDS011;42175;46.930;9.532;2022-10-16T13:36:48;9.35;;;2.90;;
56267;SDS011;42175;46.930;9.532;2022-10-16T13:44:51;7.55;;;2.50;;
56267;SDS011;42175;46.930;9.532;2022-10-16T13:47:19;9.85;;;2.70;;
56267;SDS011;42175;46.930;9.532;2022-10-16T13:49:58;8.95;;;3.00;;
56267;SDS011;42175;46.930;9.532;2022-10-16T13:52:29;13.23;;;2.60;;
56267;SDS011;42175;46.930;9.532;2022-10-16T13:54:55;8.82;;;3.00;;
56267;SDS011;42175;46.930;9.532;2022-10-16T13:57:22;6.60;;;2.75;;
56267;SDS011;42175;46.930;9.532;2022-10-16T13:59:49;8.70;;;2.42;;
56267;SDS011;42175;46.930;9.532;2022-10-16T14:02:20;5.82;;;2.33;;
56267;SDS011;42175;46.930;9.532;2022-10-16T14:04:53;13.38;;;2.83;;
56267;SDS011;42175;46.930;9.532;2022-10-16T14:07:23;9.68;;;2.92;;
56267;SDS011;42175;46.930;9.532;2022-10-16T14:09:51;8.30;;;2.42;;
56267;SDS011;42175;46.930;9.532;2022-10-16T14:12:18;9.07;;;2.30;;
56267;SDS011;42175;46.930;9.532;2022-10-16T14:14:51;6.20;;;2.53;;
56267;SDS011;42175;46.930;9.532;2022-10-16T14:17:20;9.38;;;2.70;;
56267;SDS011;42175;46.930;9.532;2022-10-16T14:19:51;15.23;;;2.67;;
56267;SDS011;42175;46.930;9.532;2022-10-16T14:22:30;7.68;;;2.45;;
56267;SDS011;42175;46.930;9.532;2022-10-16T14:24:59;9.43;;;2.97;;
56267;SDS011;42175;46.930;9.532;2022-10-16T14:38:53;11.48;;;2.40;;
56267;SDS011;42175;46.930;9.532;2022-10-16T14:41:23;8.95;;;2.33;;
56267;SDS011;42175;46.930;9.532;2022-10-16T14:43:53;20.73;;;2.78;;
56267;SDS011;42175;46.930;9.532;2022-10-16T14:46:34;12.57;;;2.75;;
56267;SDS011;42175;46.930;9.532;2022-10-16T14:51:34;7.13;;;2.35;;
56267;SDS011;42175;46.930;9.532;2022-10-16T14:54:00;19.20;;;2.63;;
56267;SDS011;42175;46.930;9.532;2022-10-16T14:56:29;7.25;;;2.08;;
56267;SDS011;42175;46.930;9.532;2022-10-16T14:59:06;5.97;;;2.30;;
56267;SDS011;42175;46.930;9.532;2022-10-16T15:01:38;13.85;;;2.28;;
56267;SDS011;42175;46.930;9.532;2022-10-16T15:04:04;8.73;;;1.83;;
56267;SDS011;42175;46.930;9.532;2022-10-16T15:06:30;10.30;;;2.40;;
56267;SDS011;42175;46.930;9.532;2022-10-16T15:08:55;21.90;;;2.92;;
56267;SDS011;42175;46.930;9.532;2022-10-16T15:11:21;13.00;;;2.20;;
56267;SDS011;42175;46.930;9.532;2022-10-16T15:13:47;15.00;;;2.20;;
56267;SDS011;42175;46.930;9.532;2022-10-16T15:16:13;13.30;;;2.20;;
56267;SDS011;42175;46.930;9.532;2022-10-16T15:18:41;7.78;;;1.80;;
56267;SDS011;42175;46.930;9.532;2022-10-16T15:21:07;12.77;;;2.42;;
56267;SDS011;42175;46.930;9.532;2022-10-16T15:23:34;10.60;;;2.17;;
56267;SDS011;42175;46.930;9.532;2022-10-16T15:25:59;11.35;;;2.00;;
56267;SDS011;42175;46.930;9.532;2022-10-16T15:28:25;11.07;;;1.98;;
56267;SDS011;42175;46.930;9.532;2022-10-16T15:30:52;14.60;;;2.25;;
56267;SDS011;42175;46.930;9.532;2022-10-16T15:33:20;18.27;;;2.53;;
56267;SDS011;42175;46.930;9.532;2022-10-16T15:35:49;13.07;;;2.05;;
56267;SDS011;42175;46.930;9.532;2022-10-16T15:38:16;16.65;;;1.88;;
56267;SDS011;42175;46.930;9.532;2022-10-16T15:40:44;17.08;;;2.22;;
56267;SDS011;42175;46.930;9.532;2022-10-16T15:43:10;10.48;;;2.65;;
56267;SDS011;42175;46.930;9.532;2022-10-16T15:45:36;12.63;;;2.60;;
56267;SDS011;42175;46.930;9.532;2022-10-16T15:48:02;16.23;;;2.20;;
56267;SDS011;42175;46.930;9.532;2022-10-16T15:50:29;12.40;;;2.47;;
56267;SDS011;42175;46.930;9.532;2022-10-16T15:52:56;19.95;;;2.92;;
56267;SDS011;42175;46.930;9.532;2022-10-16T15:55:22;22.27;;;2.45;;
56267;SDS011;42175;46.930;9.532;2022-10-16T15:57:48;9.57;;;2.40;;
56267;SDS011;42175;46.930;9.532;2022-10-16T16:00:16;16.08;;;2.30;;
56267;SDS011;42175;46.930;9.532;2022-10-16T16:02:49;13.80;;;2.22;;
56267;SDS011;42175;46.930;9.532;2022-10-16T16:05:18;18.20;;;2.30;;
56267;SDS011;42175;46.930;9.532;2022-10-16T16:07:46;12.57;;;2.65;;
56267;SDS011;42175;46.930;9.532;2022-10-16T16:10:12;19.73;;;4.53;;
56267;SDS011;42175;46.930;9.532;2022-10-16T16:12:38;43.53;;;7.97;;
56267;SDS011;42175;46.930;9.532;2022-10-16T16:15:05;40.63;;;6.03;;
56267;SDS011;42175;46.930;9.532;2022-10-16T16:17:32;20.30;;;3.92;;
56267;SDS011;42175;46.930;9.532;2022-10-16T16:19:59;14.98;;;3.92;;
56267;SDS011;42175;46.930;9.532;2022-10-16T16:22:25;14.40;;;2.85;;
56267;SDS011;42175;46.930;9.532;2022-10-16T16:24:51;9.60;;;2.42;;
56267;SDS011;42175;46.930;9.532;2022-10-16T16:27:17;12.93;;;2.40;;
56267;SDS011;42175;46.930;9.532;2022-10-16T16:29:44;9.68;;;2.20;;
56267;SDS011;42175;46.930;9.532;2022-10-16T16:32:11;11.98;;;2.53;;
56267;SDS011;42175;46.930;9.532;2022-10-16T16:34:36;12.43;;;2.05;;
56267;SDS011;42175;46.930;9.532;2022-10-16T16:37:02;9.85;;;1.80;;
56267;SDS011;42175;46.930;9.532;2022-10-16T16:39:28;13.55;;;1.98;;
56267;SDS011;42175;46.930;9.532;2022-10-16T16:41:55;8.25;;;2.50;;
56267;SDS011;42175;46.930;9.532;2022-10-16T16:44:23;9.65;;;2.33;;
56267;SDS011;42175;46.930;9.532;2022-10-16T16:46:49;6.68;;;1.95;;
56267;SDS011;42175;46.930;9.532;2022-10-16T16:49:15;9.98;;;1.85;;
56267;SDS011;42175;46.930;9.532;2022-10-16T16:51:41;10.35;;;2.33;;
56267;SDS011;42175;46.930;9.532;2022-10-16T16:54:07;16.42;;;2.75;;
56267;SDS011;42175;46.930;9.532;2022-10-16T16:56:36;9.00;;;2.17;;
56267;SDS011;42175;46.930;9.532;2022-10-16T16:59:02;12.95;;;2.17;;
56267;SDS011;42175;46.930;9.532;2022-10-16T17:01:29;15.73;;;3.42;;
56267;SDS011;42175;46.930;9.532;2022-10-16T17:03:56;11.95;;;2.22;;
56267;SDS011;42175;46.930;9.532;2022-10-16T17:06:26;13.25;;;2.65;;
56267;SDS011;42175;46.930;9.532;2022-10-16T17:08:54;17.85;;;1.88;;
56267;SDS011;42175;46.930;9.532;2022-10-16T17:11:21;10.23;;;2.00;;
56267;SDS011;42175;46.930;9.532;2022-10-16T17:13:49;13.60;;;2.05;;
56267;SDS011;42175;46.930;9.532;2022-10-16T17:16:18;11.85;;;2.53;;
56267;SDS011;42175;46.930;9.532;2022-10-16T17:18:44;9.75;;;1.90;;
56267;SDS011;42175;46.930;9.532;2022-10-16T17:21:10;7.05;;;2.10;;
56267;SDS011;42175;46.930;9.532;2022-10-16T17:23:36;5.20;;;2.22;;
56267;SDS011;42175;46.930;9.532;2022-10-16T17:26:10;6.57;;;1.75;;
56267;SDS011;42175;46.930;9.532;2022-10-16T17:28:38;13.25;;;2.42;;
56267;SDS011;42175;46.930;9.532;2022-10-16T17:31:10;5.53;;;2.17;;
56267;SDS011;42175;46.930;9.532;2022-10-16T17:33:38;5.97;;;2.05;;
56267;SDS011;42175;46.930;9.532;2022-10-16T17:36:04;12.43;;;3.05;;
56267;SDS011;42175;46.930;9.532;2022-10-16T17:38:30;20.40;;;2.78;;
56267;SDS011;42175;46.930;9.532;2022-10-16T17:40:56;10.30;;;2.38;;
56267;SDS011;42175;46.930;9.532;2022-10-16T17:43:22;10.13;;;2.40;;
56267;SDS011;42175;46.930;9.532;2022-10-16T17:45:47;9.27;;;2.40;;
56267;SDS011;42175;46.930;9.532;2022-10-16T17:48:13;9.27;;;2.42;;